Time;durP1;ratioP1;P1;durP2;ratioP2;P2;SDS_P1;SDS_P2;PMS_P1;PMS_P2;Temp;Humidity;BMP_temperature;BMP_pressure;BME280_temperature;BME280_humidity;BME280_pressure;Samples;Min_cycle;Max_cycle;Signal;HPM_P1;HPM_P2
2022/08/10 00:00:22;;;;;;;;;3.33;3.33;;;;;-146.67;100.00;57155.34;5005652;28;61707;-74
2022/08/10 00:02:47;;;;;;;;;4.00;2.67;;;;;-146.67;100.00;57155.34;5004887;28;61782;-74
2022/08/10 00:05:14;;;;;;;;;3.00;3.00;;;;;-146.67;100.00;57155.34;5005292;28;61774;-74
2022/08/10 00:07:39;;;;;;;;;4.00;3.00;;;;;-146.67;100.00;57155.34;5005290;28;61727;-74
2022/08/10 00:10:06;;;;;;;;;4.50;3.00;;;;;-146.67;100.00;57155.34;5005445;28;61644;-74
2022/08/10 00:12:31;;;;;;;;;3.00;3.00;;;;;-146.67;100.00;57155.34;5004678;28;62116;-74
2022/08/10 00:14:58;;;;;;;;;3.00;3.00;;;;;-146.67;100.00;57155.34;5005181;28;61799;-74
2022/08/10 00:17:24;;;;;;;;;3.33;3.33;;;;;-146.67;100.00;57155.34;5005262;28;61769;-74
2022/08/10 00:19:50;;;;;;;;;1.33;1.33;;;;;-146.67;100.00;57155.34;5005339;28;62247;-74
2022/08/10 00:22:15;;;;;;;;;2.33;2.33;;;;;-146.67;100.00;57155.34;5004708;28;61701;-74
2022/08/10 00:24:41;;;;;;;;;2.00;2.00;;;;;-146.67;100.00;57155.34;5003132;28;61876;-74
2022/08/10 00:27:06;;;;;;;;;2.25;2.25;;;;;-146.67;100.00;57155.34;5004972;28;61961;-74
2022/08/10 00:29:32;;;;;;;;;2.33;2.33;;;;;-146.67;100.00;57155.34;5005398;28;62055;-74
2022/08/10 00:31:57;;;;;;;;;1.67;1.67;;;;;-146.67;100.00;57155.34;5004396;28;61948;-74
2022/08/10 00:34:23;;;;;;;;;2.33;2.33;;;;;-146.67;100.00;57155.34;5005192;28;61837;-74
2022/08/10 00:36:48;;;;;;;;;3.33;2.67;;;;;-146.67;100.00;57155.34;5003486;28;61916;-74
2022/08/10 00:39:14;;;;;;;;;2.00;2.00;;;;;-146.67;100.00;57155.34;5004882;28;61788;-74
2022/08/10 00:41:39;;;;;;;;;3.00;2.00;;;;;-146.67;100.00;57155.34;5004365;28;61869;-74
2022/08/10 00:44:05;;;;;;;;;2.00;2.00;;;;;-146.67;100.00;57155.34;4987084;28;61746;-74
2022/08/10 00:46:30;;;;;;;;;2.33;2.00;;;;;-146.67;100.00;57155.34;4987223;28;61836;-74
2022/08/10 00:48:56;;;;;;;;;2.00;2.00;;;;;-146.67;100.00;57155.34;5004770;28;61809;-75
2022/08/10 00:51:21;;;;;;;;;2.67;2.67;;;;;-146.67;100.00;57155.34;5004318;28;61994;-74
2022/08/10 00:53:47;;;;;;;;;2.00;2.00;;;;;-146.67;100.00;57155.34;5004500;28;62762;-74
2022/08/10 00:56:12;;;;;;;;;3.25;2.75;;;;;-146.67;100.00;57155.34;4986970;28;62107;-74
2022/08/10 00:58:38;;;;;;;;;1.00;1.00;;;;;-146.67;100.00;57155.34;5004865;28;61991;-74
2022/08/10 01:01:04;;;;;;;;;2.00;1.67;;;;;-146.67;100.00;57155.34;5002847;28;63460;-74
2022/08/10 01:03:29;;;;;;;;;1.00;1.00;;;;;-146.67;100.00;57155.34;5004555;28;61885;-74
2022/08/10 01:06:34;;;;;;;;;2.75;2.75;;;;;-146.67;100.00;57155.34;4996892;28;61777;-74
2022/08/10 01:09:44;;;;;;;;;4.50;2.75;;;;;-146.67;100.00;57155.34;5004165;28;61773;-74
2022/08/10 01:12:23;;;;;;;;;2.75;2.75;;;;;-146.67;100.00;57155.34;5002513;28;63804;-74
2022/08/10 01:15:13;;;;;;;;;2.50;2.50;;;;;-146.67;100.00;57155.34;5002966;28;61945;-74
2022/08/10 01:17:47;;;;;;;;;3.00;3.00;;;;;-146.67;100.00;57155.34;5004417;28;61913;-76
2022/08/10 01:20:24;;;;;;;;;4.00;3.00;;;;;-146.67;100.00;57155.34;5003137;28;61703;-76
2022/08/10 01:23:04;;;;;;;;;3.50;1.75;;;;;-146.67;100.00;57155.34;5003369;28;62873;-76
2022/08/10 01:25:45;;;;;;;;;2.75;2.75;;;;;-146.67;100.00;57155.34;5002861;28;62038;-77
2022/08/10 01:28:45;;;;;;;;;3.75;3.75;;;;;-146.67;100.00;57155.34;5002484;28;62079;-76
2022/08/10 01:31:15;;;;;;;;;3.25;3.25;;;;;-146.67;100.00;57155.34;5003135;28;61933;-76
2022/08/10 01:33:49;;;;;;;;;2.75;2.75;;;;;-146.67;100.00;57155.34;5003767;28;63253;-76
2022/08/10 01:36:19;;;;;;;;;2.25;1.75;;;;;-146.67;100.00;57155.34;5003953;28;61925;-76
2022/08/10 01:38:48;;;;;;;;;3.50;3.00;;;;;-146.67;100.00;57155.34;5002730;28;62094;-76
2022/08/10 01:41:49;;;;;;;;;2.75;2.75;;;;;-146.67;100.00;57155.34;5002844;28;61742;-76
2022/08/10 01:44:22;;;;;;;;;4.50;3.50;;;;;-146.67;100.00;57155.34;4961354;28;62855;-74
2022/08/10 01:46:54;;;;;;;;;4.00;4.00;;;;;-146.67;100.00;57155.34;4962149;28;62058;-74
2022/08/10 01:49:23;;;;;;;;;2.25;2.25;;;;;-146.67;100.00;57155.34;4962127;28;61828;-73
2022/08/10 01:51:54;;;;;;;;;5.50;3.00;;;;;-146.67;100.00;57155.34;4962142;28;62017;-74
2022/08/10 01:54:21;;;;;;;;;4.00;3.00;;;;;-146.67;100.00;57155.34;4961388;28;62860;-74
2022/08/10 01:56:55;;;;;;;;;3.50;2.25;;;;;-146.67;100.00;57155.34;4961959;28;61903;-74
2022/08/10 01:59:24;;;;;;;;;4.00;3.00;;;;;-146.67;100.00;57155.34;4961980;28;62334;-74
2022/08/10 02:01:55;;;;;;;;;4.50;3.25;;;;;-146.67;100.00;57155.34;4962151;28;62194;-74
2022/08/10 02:04:22;;;;;;;;;3.00;3.00;;;;;-146.67;100.00;57155.34;4960717;28;64088;-74
2022/08/10 02:06:51;;;;;;;;;4.00;3.00;;;;;-146.67;100.00;57155.34;4961740;28;62065;-74
2022/08/10 02:09:22;;;;;;;;;4.50;4.50;;;;;-146.67;100.00;57155.34;4961265;28;61893;-74
2022/08/10 02:11:50;;;;;;;;;5.00;4.00;;;;;-146.67;100.00;57155.34;4962251;28;61902;-74
2022/08/10 02:14:17;;;;;;;;;6.25;3.00;;;;;-146.67;100.00;57155.34;4944794;28;64706;-74
2022/08/10 02:16:45;;;;;;;;;1.25;1.00;;;;;-146.67;100.00;57155.34;4961872;28;61946;-74
2022/08/10 02:19:15;;;;;;;;;1.50;1.50;;;;;-146.67;100.00;57155.34;4966353;28;61894;-73
2022/08/10 02:21:42;;;;;;;;;3.33;2.33;;;;;-146.67;100.00;57155.34;4982699;28;61847;-74
2022/08/10 02:24:12;;;;;;;;;2.75;2.75;;;;;-146.67;100.00;57155.34;4981033;28;62662;-73
2022/08/10 02:26:40;;;;;;;;;4.00;3.00;;;;;-146.67;100.00;57155.34;4983641;28;62089;-74
2022/08/10 02:29:08;;;;;;;;;3.00;3.00;;;;;-146.67;100.00;57155.34;4965854;28;62152;-74
2022/08/10 02:31:36;;;;;;;;;2.50;2.50;;;;;-146.67;100.00;57155.34;4983822;28;61799;-74
2022/08/10 02:34:03;;;;;;;;;3.25;2.75;;;;;-146.67;100.00;57155.34;4982436;28;62304;-74
2022/08/10 02:36:33;;;;;;;;;5.00;2.00;;;;;-146.67;100.00;57155.34;4983316;28;61937;-74
2022/08/10 02:39:01;;;;;;;;;3.00;3.00;;;;;-146.67;100.00;57155.34;4983312;28;61739;-74
2022/08/10 02:41:26;;;;;;;;;3.00;3.00;;;;;-146.67;100.00;57155.34;4983635;28;61970;-73
2022/08/10 02:44:04;;;;;;;;;3.50;3.50;;;;;-146.67;100.00;57155.34;4981039;28;63913;-74
2022/08/10 02:46:38;;;;;;;;;2.25;2.00;;;;;-146.67;100.00;57155.34;4983437;28;61758;-74
2022/08/10 02:49:05;;;;;;;;;3.25;3.25;;;;;-146.67;100.00;57155.34;4983127;28;61930;-73
2022/08/10 02:51:36;;;;;;;;;5.50;3.25;;;;;-146.67;100.00;57155.34;4983552;28;61871;-74
2022/08/10 02:54:07;;;;;;;;;3.75;3.50;;;;;-146.67;100.00;57155.34;4980099;28;63495;-74
2022/08/10 02:56:33;;;;;;;;;6.00;3.50;;;;;-146.67;100.00;57155.34;4983213;28;61872;-74
2022/08/10 02:59:07;;;;;;;;;4.25;3.00;;;;;-146.67;100.00;57155.34;4982998;28;61906;-74
2022/08/10 03:01:40;;;;;;;;;3.00;3.00;;;;;-146.67;100.00;57155.34;4983537;28;61858;-74
2022/08/10 03:04:10;;;;;;;;;5.00;4.00;;;;;-146.67;100.00;57155.34;4983017;28;61847;-73
2022/08/10 03:06:42;;;;;;;;;4.75;3.00;;;;;-146.67;100.00;57155.34;4984781;28;61852;-74
2022/08/10 03:09:12;;;;;;;;;5.00;3.50;;;;;-146.67;100.00;57155.34;4984958;28;61906;-73
2022/08/10 03:11:40;;;;;;;;;2.50;2.50;;;;;-146.67;100.00;57155.34;5003008;28;61814;-73
2022/08/10 03:14:07;;;;;;;;;4.00;3.00;;;;;-146.67;100.00;57155.34;4983769;28;64933;-73
2022/08/10 03:16:34;;;;;;;;;5.00;2.75;;;;;-146.67;100.00;57155.34;5002388;28;61850;-74
2022/08/10 03:19:03;;;;;;;;;4.25;2.50;;;;;-146.67;100.00;57155.34;5001057;28;61881;-73
2022/08/10 03:21:29;;;;;;;;;2.75;2.75;;;;;-146.67;100.00;57155.34;5001250;28;61817;-73
2022/08/10 03:23:58;;;;;;;;;3.00;3.00;;;;;-146.67;100.00;57155.34;5001425;28;61847;-74
2022/08/10 03:26:25;;;;;;;;;6.00;2.75;;;;;-146.67;100.00;57155.34;5001052;28;61892;-74
2022/08/10 03:28:52;;;;;;;;;2.00;2.00;;;;;-146.67;100.00;57155.34;4984596;28;62010;-73
2022/08/10 03:31:17;;;;;;;;;3.00;3.00;;;;;-146.67;100.00;57155.34;5002214;28;61853;-75
2022/08/10 03:33:44;;;;;;;;;3.25;3.00;;;;;-146.67;100.00;57155.34;5001869;28;61852;-73
2022/08/10 03:36:11;;;;;;;;;6.25;3.75;;;;;-146.67;100.00;57155.34;5002236;28;62032;-73
2022/08/10 03:38:39;;;;;;;;;4.00;4.00;;;;;-146.67;100.00;57155.34;5002316;28;61823;-74
2022/08/10 03:41:10;;;;;;;;;3.50;3.00;;;;;-146.67;100.00;57155.34;4984680;28;61777;-74
2022/08/10 03:43:37;;;;;;;;;5.50;4.00;;;;;-146.67;100.00;57155.34;5001467;28;61734;-73
2022/08/10 03:46:08;;;;;;;;;3.75;3.75;;;;;-146.67;100.00;57155.34;5001901;28;61880;-74
2022/08/10 03:48:37;;;;;;;;;3.00;3.00;;;;;-146.67;100.00;57155.34;5000831;28;61887;-73
2022/08/10 03:51:03;;;;;;;;;3.50;3.50;;;;;-146.67;100.00;57155.34;4984583;28;61931;-74
2022/08/10 03:53:29;;;;;;;;;4.25;3.25;;;;;-146.67;100.00;57155.34;4999950;28;63153;-73
2022/08/10 03:55:55;;;;;;;;;3.50;3.50;;;;;-146.67;100.00;57155.34;4984464;28;62125;-73
2022/08/10 03:58:21;;;;;;;;;3.75;2.75;;;;;-146.67;100.00;57155.34;5001897;28;62058;-73
2022/08/10 04:00:49;;;;;;;;;3.00;3.00;;;;;-146.67;100.00;57155.34;5000683;28;61896;-73
2022/08/10 04:03:16;;;;;;;;;5.00;3.75;;;;;-146.67;100.00;57155.34;5001347;28;61994;-74
2022/08/10 04:05:41;;;;;;;;;5.00;4.00;;;;;-146.67;100.00;57155.34;5001859;28;61803;-73
2022/08/10 04:08:07;;;;;;;;;4.00;4.00;;;;;-146.67;100.00;57155.34;5001911;28;62234;-73
2022/08/10 04:10:32;;;;;;;;;5.50;4.00;;;;;-146.67;100.00;57155.34;5002279;28;61786;-74
2022/08/10 04:12:57;;;;;;;;;7.00;3.75;;;;;-146.67;100.00;57155.34;4999998;28;64534;-73
2022/08/10 04:15:23;;;;;;;;;4.00;4.00;;;;;-146.67;100.00;57155.34;5001698;28;61736;-74
2022/08/10 04:17:49;;;;;;;;;4.50;2.75;;;;;-146.67;100.00;57155.34;5000555;28;61925;-74
2022/08/10 04:20:30;;;;;;;;;3.00;3.00;;;;;-146.67;100.00;57155.34;5002150;28;61791;-73
2022/08/10 04:23:00;;;;;;;;;3.00;3.00;;;;;-146.67;100.00;57155.34;5001023;28;62620;-74
2022/08/10 04:25:26;;;;;;;;;7.25;4.50;;;;;-146.67;100.00;57155.34;5001485;28;62032;-74
2022/08/10 04:27:53;;;;;;;;;5.25;4.50;;;;;-146.67;100.00;57155.34;5001667;28;62066;-74
2022/08/10 04:30:19;;;;;;;;;5.75;4.00;;;;;-146.67;100.00;57155.34;5001276;28;61763;-74
2022/08/10 04:32:49;;;;;;;;;3.25;2.50;;;;;-146.67;100.00;57155.34;5003966;28;63217;-74
2022/08/10 04:35:19;;;;;;;;;3.00;3.00;;;;;-146.67;100.00;57155.34;5004982;28;61742;-73
2022/08/10 04:37:47;;;;;;;;;4.25;3.25;;;;;-146.67;100.00;57155.34;5004940;28;61988;-74
2022/08/10 04:40:13;;;;;;;;;5.00;3.50;;;;;-146.67;100.00;57155.34;5005049;28;61805;-73
2022/08/10 04:42:39;;;;;;;;;4.50;3.00;;;;;-146.67;100.00;57155.34;5004213;28;63276;-74
2022/08/10 04:45:10;;;;;;;;;8.00;4.50;;;;;-146.67;100.00;57155.34;5004459;28;61876;-74
2022/08/10 04:47:36;;;;;;;;;2.50;1.75;;;;;-146.67;100.00;57155.34;5003902;28;61808;-73
2022/08/10 04:50:03;;;;;;;;;4.50;4.50;;;;;-146.67;100.00;57155.34;5003404;28;62250;-73
2022/08/10 04:52:28;;;;;;;;;3.00;3.00;;;;;-146.67;100.00;57155.34;5004148;28;61978;-73
2022/08/10 04:54:53;;;;;;;;;4.75;3.00;;;;;-146.67;100.00;57155.34;5004554;28;61715;-73
2022/08/10 04:57:19;;;;;;;;;5.25;3.00;;;;;-146.67;100.00;57155.34;4986902;28;61788;-73
2022/08/10 04:59:44;;;;;;;;;6.00;2.00;;;;;-146.67;100.00;57155.34;5004485;28;62043;-73
2022/08/10 05:02:10;;;;;;;;;4.00;3.00;;;;;-146.67;100.00;57155.34;5003953;28;63056;-73
2022/08/10 05:04:35;;;;;;;;;3.25;2.50;;;;;-146.67;100.00;57155.34;4986533;28;62036;-76
2022/08/10 05:07:01;;;;;;;;;4.25;3.25;;;;;-146.67;100.00;57155.34;5004853;28;62188;-76
2022/08/10 05:09:26;;;;;;;;;4.00;3.00;;;;;-146.67;100.00;57155.34;4986708;28;62170;-76
2022/08/10 05:11:52;;;;;;;;;4.50;3.50;;;;;-146.67;100.00;57155.34;5003953;28;62316;-78
2022/08/10 05:14:17;;;;;;;;;4.00;2.75;;;;;-146.67;100.00;57155.34;4986298;28;61922;-77
2022/08/10 05:16:42;;;;;;;;;5.00;3.25;;;;;-146.67;100.00;57155.34;5004343;28;61877;-77
2022/08/10 05:19:08;;;;;;;;;2.75;2.75;;;;;-146.67;100.00;57155.34;4997339;28;61861;-77
2022/08/10 05:21:33;;;;;;;;;6.50;5.00;;;;;-146.67;100.00;57155.34;4997522;28;62092;-77
2022/08/10 05:24:03;;;;;;;;;4.00;3.00;;;;;-146.67;100.00;57155.34;5002145;28;62056;-76
2022/08/10 05:26:30;;;;;;;;;5.00;3.50;;;;;-146.67;100.00;57155.34;5003166;28;61868;-77
2022/08/10 05:28:56;;;;;;;;;6.75;3.50;;;;;-146.67;100.00;57155.34;4989619;28;61711;-77
2022/08/10 05:31:21;;;;;;;;;3.75;3.00;;;;;-146.67;100.00;57155.34;4989359;28;62018;-77
2022/08/10 05:33:47;;;;;;;;;2.00;2.00;;;;;-146.67;100.00;57155.34;4984630;28;61982;-77
2022/08/10 05:36:13;;;;;;;;;3.00;3.00;;;;;-146.67;100.00;57155.34;4968804;28;62429;-77
2022/08/10 05:38:38;;;;;;;;;3.75;3.75;;;;;-146.67;100.00;57155.34;4975131;28;62231;-77
2022/08/10 05:41:04;;;;;;;;;3.75;2.75;;;;;-146.67;100.00;57155.34;4993960;28;62883;-77
2022/08/10 05:43:31;;;;;;;;;6.25;2.75;;;;;-146.67;100.00;57155.34;4991966;28;62157;-76
2022/08/10 05:45:56;;;;;;;;;4.50;3.50;;;;;-146.67;100.00;57155.34;4991429;28;61927;-77
2022/08/10 05:48:22;;;;;;;;;3.75;2.00;;;;;-146.67;100.00;57155.34;5001256;28;61992;-78
2022/08/10 05:50:49;;;;;;;;;6.00;4.00;;;;;-146.67;100.00;57155.34;4986148;28;61850;-78
2022/08/10 05:53:18;;;;;;;;;52.75;29.00;;;;;-146.67;100.00;57155.34;4975316;28;61787;-80
2022/08/10 05:55:44;;;;;;;;;6.75;3.00;;;;;-146.67;100.00;57155.34;5002757;28;61853;-81
2022/08/10 05:58:10;;;;;;;;;3.25;2.00;;;;;-146.67;100.00;57155.34;5000515;28;61905;-80
2022/08/10 06:00:39;;;;;;;;;4.00;3.00;;;;;-146.67;100.00;57155.34;4993774;28;63163;-79
2022/08/10 06:03:07;;;;;;;;;3.50;3.50;;;;;-146.67;100.00;57155.34;5000185;28;62565;-80
2022/08/10 06:05:35;;;;;;;;;5.75;3.75;;;;;-146.67;100.00;57155.34;4980616;28;62163;-79
2022/08/10 06:08:07;;;;;;;;;5.50;3.50;;;;;-146.67;100.00;57155.34;4992648;28;61759;-79
2022/08/10 06:10:36;;;;;;;;;5.00;4.00;;;;;-146.67;100.00;57155.34;4993311;28;62937;-79
2022/08/10 06:15:54;;;;;;;;;6.00;4.50;;;;;-146.67;100.00;57155.34;4988528;28;61667;-80
2022/08/10 06:18:21;;;;;;;;;4.75;3.75;;;;;-146.67;100.00;57155.34;4982379;28;61775;-81
2022/08/10 06:20:48;;;;;;;;;3.50;3.25;;;;;-146.67;100.00;57155.34;4983169;28;62840;-81
2022/08/10 06:23:14;;;;;;;;;6.50;5.25;;;;;-146.67;100.00;57155.34;4982448;28;61726;-80
2022/08/10 06:25:39;;;;;;;;;2.25;2.25;;;;;-146.67;100.00;57155.34;4980776;28;61964;-80
2022/08/10 06:28:07;;;;;;;;;5.50;3.00;;;;;-146.67;100.00;57155.34;4983251;28;61961;-81
2022/08/10 06:30:34;;;;;;;;;3.25;3.25;;;;;-146.67;100.00;57155.34;5000882;28;65220;-80
2022/08/10 06:33:01;;;;;;;;;4.00;4.00;;;;;-146.67;100.00;57155.34;5003461;28;61912;-78
2022/08/10 06:35:30;;;;;;;;;4.00;4.00;;;;;-146.67;100.00;57155.34;4995836;28;62199;-77
2022/08/10 06:38:01;;;;;;;;;6.33;4.33;;;;;-146.67;100.00;57155.34;4996977;28;62049;-74
2022/08/10 06:40:32;;;;;;;;;3.25;3.25;;;;;-146.67;100.00;57155.34;4983148;28;61881;-74
2022/08/10 06:43:00;;;;;;;;;6.00;2.67;;;;;-146.67;100.00;57155.34;4996109;28;61911;-77
2022/08/10 06:45:36;;;;;;;;;4.00;4.00;;;;;-146.67;100.00;57155.34;5002634;28;61984;-76
2022/08/10 06:48:15;;;;;;;;;5.00;5.00;;;;;-146.67;100.00;57155.34;4997548;28;61778;-76
2022/08/10 06:50:46;;;;;;;;;6.33;4.00;;;;;-146.67;100.00;57155.34;4982519;28;61831;-75
2022/08/10 06:53:24;;;;;;;;;4.00;4.00;;;;;-146.67;100.00;57155.34;4982660;28;61769;-76
2022/08/10 06:56:06;;;;;;;;;3.00;3.00;;;;;-146.67;100.00;57155.34;4984970;28;61792;-75
2022/08/10 06:58:38;;;;;;;;;6.00;5.00;;;;;-146.67;100.00;57155.34;5000208;28;62211;-76
2022/08/10 07:01:07;;;;;;;;;5.00;5.00;;;;;-146.67;100.00;57155.34;4993699;28;63579;-76
2022/08/10 07:03:41;;;;;;;;;4.33;4.33;;;;;-146.67;100.00;57155.34;4982640;28;61918;-76
2022/08/10 07:06:12;;;;;;;;;6.00;4.33;;;;;-146.67;100.00;57155.34;4982594;28;61996;-76
2022/08/10 07:08:40;;;;;;;;;6.00;5.00;;;;;-146.67;100.00;57155.34;5001166;28;61773;-76
2022/08/10 07:11:08;;;;;;;;;3.67;3.67;;;;;-146.67;100.00;57155.34;4995318;28;62066;-76
2022/08/10 07:13:38;;;;;;;;;5.67;5.33;;;;;-146.67;100.00;57155.34;4989544;28;61990;-77
2022/08/10 07:16:10;;;;;;;;;6.33;3.67;;;;;-146.67;100.00;57155.34;5002742;28;61867;-75
2022/08/10 07:18:37;;;;;;;;;4.67;4.67;;;;;-146.67;100.00;57155.34;4993619;28;62115;-75
2022/08/10 07:21:06;;;;;;;;;5.00;5.00;;;;;-146.67;100.00;57155.34;4997599;28;62121;-75
2022/08/10 07:23:33;;;;;;;;;7.00;6.33;;;;;-146.67;100.00;57155.34;4992367;28;62065;-75
2022/08/10 07:26:00;;;;;;;;;8.67;6.00;;;;;-146.67;100.00;57155.34;4981322;28;62017;-75
2022/08/10 07:28:30;;;;;;;;;8.00;5.33;;;;;-146.67;100.00;57155.34;4965126;28;61899;-75
2022/08/10 07:30:57;;;;;;;;;9.00;4.67;;;;;-146.67;100.00;57155.34;4970810;28;64093;-76
2022/08/10 07:33:23;;;;;;;;;4.67;4.00;;;;;-146.67;100.00;57155.34;4953061;28;61883;-74
2022/08/10 07:35:50;;;;;;;;;4.67;4.67;;;;;-146.67;100.00;57155.34;4960245;28;62094;-75
2022/08/10 07:38:20;;;;;;;;;4.67;4.67;;;;;-146.67;100.00;57155.34;4948352;28;61935;-74
2022/08/10 07:40:49;;;;;;;;;7.33;6.00;;;;;-146.67;100.00;57155.34;4975749;28;63665;-74
2022/08/10 07:43:17;;;;;;;;;4.33;4.33;;;;;-146.67;100.00;57155.34;4962785;28;61891;-74
2022/08/10 07:45:44;;;;;;;;;7.33;5.67;;;;;-146.67;100.00;57155.34;4962942;28;62013;-74
2022/08/10 07:48:16;;;;;;;;;5.67;5.00;;;;;-146.67;100.00;57155.34;4963286;28;61873;-77
2022/08/10 07:50:43;;;;;;;;;4.33;4.00;;;;;-146.67;100.00;57155.34;4960311;28;63538;-79
2022/08/10 07:53:20;;;;;;;;;6.00;5.00;;;;;-146.67;100.00;57155.34;4966074;28;61949;-78
2022/08/10 07:55:47;;;;;;;;;5.00;4.25;;;;;-146.67;100.00;57155.34;4950413;28;62079;-78
2022/08/10 07:58:16;;;;;;;;;5.00;4.00;;;;;-146.67;100.00;57155.34;4961771;28;62045;-74
2022/08/10 08:00:44;;;;;;;;;6.25;6.25;;;;;-146.67;100.00;57155.34;4956153;28;63027;-74
2022/08/10 08:03:12;;;;;;;;;4.00;4.00;;;;;-146.67;100.00;57155.34;4958696;28;62113;-75
2022/08/10 08:05:38;;;;;;;;;5.25;5.25;;;;;-146.67;100.00;57155.34;4943435;28;61807;-74
2022/08/10 08:08:06;;;;;;;;;6.67;5.33;;;;;-146.67;100.00;57155.34;4946830;28;61980;-74
2022/08/10 08:10:34;;;;;;;;;6.33;5.33;;;;;-146.67;100.00;57155.34;4969255;28;64823;-81
2022/08/10 08:13:01;;;;;;;;;5.25;5.25;;;;;-146.67;100.00;57155.34;4954116;28;61975;-80
2022/08/10 08:15:28;;;;;;;;;7.50;5.50;;;;;-146.67;100.00;57155.34;4958532;28;61769;-76
2022/08/10 08:17:55;;;;;;;;;6.25;5.00;;;;;-146.67;100.00;57155.34;4964700;28;61973;-78
2022/08/10 08:20:22;;;;;;;;;4.50;4.25;;;;;-146.67;100.00;57155.34;4965058;28;61968;-78
2022/08/10 08:22:48;;;;;;;;;6.33;4.00;;;;;-146.67;100.00;57155.34;4965405;28;61854;-78
2022/08/10 08:25:16;;;;;;;;;8.25;6.50;;;;;-146.67;100.00;57155.34;4949830;28;61963;-74
2022/08/10 08:27:43;;;;;;;;;9.50;7.50;;;;;-146.67;100.00;57155.34;4965786;28;61769;-76
2022/08/10 08:30:10;;;;;;;;;9.50;6.50;;;;;-146.67;100.00;57155.34;4984726;28;62026;-75
2022/08/10 08:32:42;;;;;;;;;5.50;5.50;;;;;-146.67;100.00;57155.34;4985053;28;61862;-76
2022/08/10 08:35:11;;;;;;;;;5.00;5.00;;;;;-146.67;100.00;57155.34;4985313;28;61740;-75
2022/08/10 08:37:39;;;;;;;;;6.00;5.00;;;;;-146.67;100.00;57155.34;4985402;28;61747;-75
2022/08/10 08:40:09;;;;;;;;;8.25;6.00;;;;;-146.67;100.00;57155.34;4984563;28;61774;-75
2022/08/10 08:43:23;;;;;;;;;6.25;4.50;;;;;-146.67;100.00;57155.34;4989898;28;61997;-79
2022/08/10 08:46:05;;;;;;;;;6.00;5.00;;;;;-146.67;100.00;57155.34;4964160;28;61967;-74
2022/08/10 08:49:18;;;;;;;;;6.33;4.00;;;;;-146.67;100.00;57155.34;4967558;28;62213;-74
2022/08/10 08:51:46;;;;;;;;;4.00;4.00;;;;;-146.67;100.00;57155.34;4966912;28;61896;-74
2022/08/10 08:54:26;;;;;;;;;5.50;4.25;;;;;-146.67;100.00;57155.34;4990937;28;61824;-76
2022/08/10 08:57:32;;;;;;;;;6.00;5.00;;;;;-146.67;100.00;57155.34;5004702;28;61861;-76
2022/08/10 09:00:13;;;;;;;;;9.50;6.00;;;;;-146.67;100.00;57155.34;5004537;28;61886;-76
2022/08/10 09:03:09;;;;;;;;;8.00;8.00;;;;;-146.67;100.00;57155.34;5003821;28;61876;-76
2022/08/10 09:05:49;;;;;;;;;4.67;4.00;;;;;-146.67;100.00;57155.34;5002945;28;61834;-74
2022/08/10 09:08:36;;;;;;;;;9.33;6.67;;;;;-146.67;100.00;57155.34;5003133;28;61870;-74
2022/08/10 09:11:38;;;;;;;;;4.33;4.00;;;;;-146.67;100.00;57155.34;5004619;28;61783;-74
2022/08/10 09:14:24;;;;;;;;;5.33;5.00;;;;;-146.67;100.00;57155.34;5003564;28;62112;-74
2022/08/10 09:17:08;;;;;;;;;8.00;6.00;;;;;-146.67;100.00;57155.34;4986333;28;62053;-75
2022/08/10 09:20:00;;;;;;;;;4.33;4.33;;;;;-146.67;100.00;57155.34;5004148;28;61809;-74
2022/08/10 09:22:39;;;;;;;;;7.75;7.00;;;;;-146.67;100.00;57155.34;4980863;28;61804;-74
2022/08/10 09:25:20;;;;;;;;;7.50;6.00;;;;;-146.67;100.00;57155.34;4965594;28;63604;-73
2022/08/10 09:27:49;;;;;;;;;5.00;5.00;;;;;-146.67;100.00;57155.34;4984416;28;61798;-75
2022/08/10 09:30:25;;;;;;;;;4.67;4.67;;;;;-146.67;100.00;57155.34;4966533;28;61786;-74
2022/08/10 09:33:00;;;;;;;;;8.33;6.67;;;;;-146.67;100.00;57155.34;4984488;28;61869;-74
2022/08/10 09:35:56;;;;;;;;;9.67;6.67;;;;;-146.67;100.00;57155.34;4982311;28;63813;-76
2022/08/10 09:38:36;;;;;;;;;8.33;7.33;;;;;-146.67;100.00;57155.34;4988167;28;62324;-77
2022/08/10 09:41:23;;;;;;;;;6.67;5.00;;;;;-146.67;100.00;57155.34;4986866;28;61836;-76
2022/08/10 09:44:00;;;;;;;;;4.33;4.33;;;;;-146.67;100.00;57155.34;4992268;28;61799;-78
2022/08/10 09:46:26;;;;;;;;;4.67;4.67;;;;;-146.67;100.00;57155.34;4991196;28;61894;-74
2022/08/10 09:49:02;;;;;;;;;7.33;7.00;;;;;-146.67;100.00;57155.34;4983786;28;61864;-75
2022/08/10 09:51:39;;;;;;;;;5.00;4.00;;;;;-146.67;100.00;57155.34;4989250;28;61977;-74
2022/08/10 09:54:34;;;;;;;;;9.67;6.00;;;;;-146.67;100.00;57155.34;4966383;28;61877;-75
2022/08/10 09:57:23;;;;;;;;;7.33;5.33;;;;;-146.67;100.00;57155.34;4965837;28;62849;-76
2022/08/10 10:00:00;;;;;;;;;6.67;5.33;;;;;-146.67;100.00;57155.34;4983925;28;61957;-77
2022/08/10 10:02:38;;;;;;;;;7.67;6.33;;;;;-146.67;100.00;57155.34;4984077;28;62118;-74
2022/08/10 10:05:42;;;;;;;;;8.00;5.67;;;;;-146.67;100.00;57155.34;4988837;28;61934;-75
2022/08/10 10:08:22;;;;;;;;;6.00;5.00;;;;;-146.67;100.00;57155.34;4983161;28;61877;-74
2022/08/10 10:11:02;;;;;;;;;7.33;6.00;;;;;-146.67;100.00;57155.34;4982586;28;61823;-74
2022/08/10 10:14:06;;;;;;;;;4.33;4.33;;;;;-146.67;100.00;57155.34;4982376;28;61932;-74
2022/08/10 10:16:49;;;;;;;;;5.00;5.00;;;;;-146.67;100.00;57155.34;4994105;28;61912;-74
2022/08/10 10:19:27;;;;;;;;;5.33;5.33;;;;;-146.67;100.00;57155.34;4965361;28;64833;-74
2022/08/10 10:22:16;;;;;;;;;5.67;5.33;;;;;-146.67;100.00;57155.34;5001173;28;61734;-74
2022/08/10 10:25:08;;;;;;;;;5.00;5.00;;;;;-146.67;100.00;57155.34;5002935;28;61950;-73
2022/08/10 10:27:46;;;;;;;;;5.00;5.00;;;;;-146.67;100.00;57155.34;5003165;28;62460;-74
2022/08/10 10:30:14;;;;;;;;;6.00;5.33;;;;;-146.67;100.00;57155.34;4993227;28;61843;-74
2022/08/10 10:33:08;;;;;;;;;5.33;5.33;;;;;-146.67;100.00;57155.34;4992601;28;62091;-74
2022/08/10 10:35:43;;;;;;;;;5.67;5.00;;;;;-146.67;100.00;57155.34;4995938;28;61878;-74
2022/08/10 10:38:11;;;;;;;;;5.67;5.67;;;;;-146.67;100.00;57155.34;5001208;28;61904;-74
2022/08/10 10:41:06;;;;;;;;;4.67;4.67;;;;;-146.67;100.00;57155.34;5002097;28;62697;-75
2022/08/10 10:44:08;;;;;;;;;5.00;5.00;;;;;-146.67;100.00;57155.34;4941399;28;61899;-75
2022/08/10 10:46:56;;;;;;;;;6.00;5.00;;;;;-146.67;100.00;57155.34;4941612;28;61904;-74
2022/08/10 10:49:57;;;;;;;;;6.00;5.00;;;;;-146.67;100.00;57155.34;4942274;28;62081;-74
2022/08/10 10:52:54;;;;;;;;;6.00;5.00;;;;;-146.67;100.00;57155.34;4941153;28;62678;-74
2022/08/10 10:55:21;;;;;;;;;4.00;3.67;;;;;-146.67;100.00;57155.34;4903336;29;61879;-74
2022/08/10 10:57:58;;;;;;;;;5.00;5.00;;;;;-146.67;100.00;57155.34;4887770;29;61901;-74
2022/08/10 11:00:31;;;;;;;;;7.00;7.00;;;;;-146.67;100.00;57155.34;4886998;29;62167;-73
2022/08/10 11:03:17;;;;;;;;;7.00;5.00;;;;;-146.67;100.00;57155.34;4902543;29;63539;-74
2022/08/10 11:06:08;;;;;;;;;6.33;5.00;;;;;-146.67;100.00;57155.34;4902970;29;61946;-74
2022/08/10 11:08:37;;;;;;;;;6.67;5.67;;;;;-146.67;100.00;57155.34;4871197;29;61854;-73
2022/08/10 11:11:10;;;;;;;;;5.67;5.67;;;;;-146.67;100.00;57155.34;4884528;29;61804;-74
2022/08/10 11:13:45;;;;;;;;;6.33;5.00;;;;;-146.67;100.00;57155.34;4885878;29;63797;-74
2022/08/10 11:16:46;;;;;;;;;3.00;3.00;;;;;-146.67;100.00;57155.34;4891507;29;62135;-74
2022/08/10 11:19:22;;;;;;;;;7.00;6.00;;;;;-146.67;100.00;57155.34;4884621;29;61994;-74
2022/08/10 11:22:14;;;;;;;;;7.00;7.00;;;;;-146.67;100.00;57155.34;4919082;28;61843;-75
2022/08/10 11:24:51;;;;;;;;;5.00;5.00;;;;;-146.67;100.00;57155.34;4921345;28;61890;-76
2022/08/10 11:27:41;;;;;;;;;3.67;3.67;;;;;-146.67;100.00;57155.34;4921871;28;62099;-75
2022/08/10 11:30:11;;;;;;;;;6.33;5.67;;;;;-146.67;100.00;57155.34;4933130;28;61973;-75
2022/08/10 11:33:14;;;;;;;;;6.67;5.00;;;;;-146.67;100.00;57155.34;4997814;28;61842;-76
2022/08/10 11:35:48;;;;;;;;;6.33;6.33;;;;;-146.67;100.00;57155.34;5000402;28;64965;-77